首页
METAR-TAF:

METAR-TAF

机场 :

拉梅齊亞泰爾梅, 意大利

纬度: 38-54N, 经度: 016-15E, 海拔: 15米

当前天气观测

该预报发布于40分钟前的17:50 UTC
风速2节,风向多变
温度 13°C
湿度 82%
气压 1011 hPa
能见度10公里或以上
少量云层高于1000英尺
散云层高于2000英尺
多云层高于5000英尺

METAR: LICA 301750Z VRB02KT 9999 FEW010 SCT020 BKN050 13/10 Q1011

时间: 20:30 (18:30 UTC)

预报

该预报发布于1小时和30分钟前的17:00 UTC
预报有效从30日的 18点(UTC)到 31日的 18点(UTC)
风速10节,风向西
能见度10公里或以上
散云层高于2000英尺
短暂存在
从 30日的 18点(UTC)到 30日的 24点(UTC)
能見度: 4000
雷暴, 雨
成为
从 30日的 19点(UTC)到 30日的 21点(UTC)
风速8节,风向东转东北
成为
从 31日的 09点(UTC)到 31日的 11点(UTC)
风速10节,风向西

TAF: LICA 301700Z 3018/3118 27010KT 9999 SCT020 TEMPO 3018/3024 4000 TSRA BECMG 3019/3021 07008KT BECMG 3109/3111 27010KT

超过4000个机场的气象观测和天气预报(METAR&TAF报告)。

可查询的气象台以黄色和红色小点在地图上表示。

将鼠标移到小点上方,可查看气象台名称。

然后点击查看天气观测和预报。

如需切换地图:点击带黑十字的绿色按钮放大地图;点击带横线的绿色按钮缩小地图;或者点击绿色箭头查看邻近地区的地图。


METAR-TAF: